Time;durP1;ratioP1;P1;durP2;ratioP2;P2;SDS_P1;SDS_P2;PMS_P1;PMS_P2;Temp;Humidity;BMP_temperature;BMP_pressure;BME280_temperature;BME280_humidity;BME280_pressure;Samples;Min_cycle;Max_cycle;Signal;HPM_P1;HPM_P2
2022/12/30 00:00:41;;;;;;;202.80;115.72;;;3.60;99.90;;;;;;4945508;29;20051;-76
2022/12/30 00:03:08;;;;;;;234.27;133.65;;;3.60;99.90;;;;;;4944016;29;20043;-78
2022/12/30 00:05:35;;;;;;;237.73;135.20;;;3.60;99.90;;;;;;4946568;28;20043;-79
2022/12/30 00:08:03;;;;;;;228.35;130.32;;;3.60;99.90;;;;;;4945400;29;20047;-76
2022/12/30 00:10:31;;;;;;;251.10;143.57;;;3.60;99.90;;;;;;4928861;29;20404;-79
2022/12/30 00:35:19;;;;;;;185.40;111.22;;;3.20;99.90;;;;;;4947755;28;20074;-77
2022/12/30 00:37:47;;;;;;;177.88;109.03;;;3.40;99.90;;;;;;4961432;29;20052;-78
2022/12/30 00:40:14;;;;;;;160.88;94.05;;;3.40;99.90;;;;;;4961090;29;20050;-75
2022/12/30 00:45:27;;;;;;;209.90;122.28;;;3.40;99.90;;;;;;4946752;29;20072;-78
2022/12/30 00:47:56;;;;;;;159.43;91.93;;;3.30;99.90;;;;;;4944984;29;20047;-75
2022/12/30 00:56:12;;;;;;;171.30;96.63;;;3.20;99.90;;;;;;4942710;29;20047;-74
2022/12/30 00:58:40;;;;;;;176.77;93.70;;;3.20;99.90;;;;;;4925207;29;20071;-76
2022/12/30 01:01:07;;;;;;;191.50;104.38;;;3.20;99.90;;;;;;4940650;29;20046;-75
2022/12/30 01:03:36;;;;;;;173.05;97.28;;;3.20;99.90;;;;;;4968564;29;20059;-76
2022/12/30 01:06:06;;;;;;;183.68;97.50;;;3.20;99.90;;;;;;4955674;28;20044;-78
2022/12/30 01:08:34;;;;;;;188.70;101.63;;;3.10;99.90;;;;;;4953716;29;20043;-75
2022/12/30 01:11:06;;;;;;;186.88;101.75;;;3.10;99.90;;;;;;4951089;29;20102;-77
2022/12/30 01:13:33;;;;;;;211.52;112.13;;;3.20;99.90;;;;;;4942834;29;20055;-76
2022/12/30 01:16:15;;;;;;;219.10;117.47;;;3.20;99.90;;;;;;4935108;29;20427;-77
2022/12/30 01:18:44;;;;;;;227.52;121.22;;;3.10;99.90;;;;;;4938238;29;20170;-77
2022/12/30 01:21:12;;;;;;;226.75;118.03;;;3.10;99.90;;;;;;4954646;29;20045;-78
2022/12/30 01:23:39;;;;;;;215.82;115.80;;;3.10;99.90;;;;;;4943255;29;20582;-77
2022/12/30 01:26:08;;;;;;;180.13;97.13;;;3.10;99.90;;;;;;4943350;28;20039;-77
2022/12/30 01:28:37;;;;;;;184.35;100.93;;;3.20;99.90;;;;;;4942690;29;20058;-77
2022/12/30 01:31:07;;;;;;;172.90;95.03;;;3.20;99.90;;;;;;4944311;29;20036;-76
2022/12/30 01:33:36;;;;;;;175.93;96.97;;;3.10;99.90;;;;;;4944849;29;20090;-77
2022/12/30 01:36:05;;;;;;;149.48;83.47;;;3.10;99.90;;;;;;4951436;29;20147;-77
2022/12/30 01:38:33;;;;;;;166.90;92.90;;;3.10;99.90;;;;;;4950028;29;20118;-77
2022/12/30 01:41:01;;;;;;;132.23;75.78;;;3.10;99.90;;;;;;4941986;29;20444;-76
2022/12/30 01:43:47;;;;;;;144.48;78.72;;;3.10;99.90;;;;;;4943604;29;20045;-73
2022/12/30 01:46:17;;;;;;;;;;;3.10;99.90;;;;;;4957482;29;20055;-78
2022/12/30 01:48:45;;;;;;;166.90;93.25;;;3.10;99.90;;;;;;4942235;29;20378;-77
2022/12/30 01:51:17;;;;;;;167.82;96.15;;;3.00;99.90;;;;;;4944500;29;20042;-78
2022/12/30 01:53:49;;;;;;;161.38;92.70;;;3.10;99.90;;;;;;4941950;29;20057;-78
2022/12/30 01:56:21;;;;;;;161.05;91.10;;;3.00;99.90;;;;;;4943263;29;20044;-78
2022/12/30 01:58:53;;;;;;;143.50;75.38;;;3.00;99.90;;;;;;4942910;29;20040;-77
2022/12/30 02:01:20;;;;;;;134.23;76.57;;;3.00;99.90;;;;;;4923688;29;20054;-77
2022/12/30 02:03:56;;;;;;;139.10;76.97;;;3.00;99.90;;;;;;4946873;29;20047;-78
2022/12/30 02:06:30;;;;;;;153.85;80.97;;;3.00;99.90;;;;;;4940711;29;20043;-78
2022/12/30 02:08:57;;;;;;;151.38;83.90;;;3.10;99.90;;;;;;4942089;29;20068;-77
2022/12/30 02:11:26;;;;;;;168.52;93.10;;;3.10;99.90;;;;;;4942662;29;20059;-77
2022/12/30 02:13:53;;;;;;;165.50;88.13;;;3.10;99.90;;;;;;4924637;28;20523;-76
2022/12/30 02:16:34;;;;;;;136.82;75.15;;;3.00;99.90;;;;;;4942286;29;20054;-78
2022/12/30 02:19:26;;;;;;;120.30;70.25;;;3.00;99.90;;;;;;4940792;29;20055;-78
2022/12/30 02:22:02;;;;;;;131.88;73.32;;;3.00;99.90;;;;;;4944484;29;20051;-74
2022/12/30 02:24:56;;;;;;;118.60;65.10;;;3.10;99.90;;;;;;4943680;28;20036;-75
2022/12/30 02:27:41;;;;;;;125.00;69.03;;;3.00;99.90;;;;;;4942973;29;20040;-75
2022/12/30 02:30:18;;;;;;;101.82;56.45;;;3.00;99.90;;;;;;4944954;29;20062;-75
2022/12/30 02:32:59;;;;;;;106.30;59.22;;;3.00;99.90;;;;;;4959849;29;20135;-76
2022/12/30 02:35:33;;;;;;;114.95;64.05;;;3.00;99.90;;;;;;4964892;28;20019;-78
2022/12/30 02:38:10;;;;;;;120.28;67.43;;;3.10;99.90;;;;;;4951326;28;20055;-78
2022/12/30 02:46:30;;;;;;;105.90;57.47;;;3.00;99.90;;;;;;4944298;29;20035;-75
2022/12/30 02:49:00;;;;;;;119.28;67.50;;;3.00;99.90;;;;;;4963349;29;20034;-78
2022/12/30 02:54:15;;;;;;;128.27;70.03;;;3.00;99.90;;;;;;4943514;29;20058;-76
2022/12/30 02:56:50;;;;;;;113.28;62.80;;;2.90;99.90;;;;;;4940382;29;20566;-77
2022/12/30 03:05:12;;;;;;;111.25;65.35;;;2.80;99.90;;;;;;4941391;29;20076;-75
2022/12/30 03:07:47;;;;;;;92.95;55.83;;;2.80;99.90;;;;;;4941666;29;20399;-78
2022/12/30 03:13:11;;;;;;;150.93;89.60;;;2.80;99.90;;;;;;4941978;29;20039;-73
2022/12/30 03:15:45;;;;;;;135.15;79.70;;;2.80;99.90;;;;;;4960439;29;20058;-77
2022/12/30 03:18:13;;;;;;;125.55;73.93;;;2.80;99.90;;;;;;4942885;29;20530;-77
2022/12/30 03:20:43;;;;;;;109.43;67.68;;;2.80;99.90;;;;;;4926731;29;20051;-77
2022/12/30 03:28:48;;;;;;;114.85;65.53;;;2.80;99.90;;;;;;4947492;29;20514;-76
2022/12/30 03:31:16;;;;;;;109.93;61.17;;;2.80;99.90;;;;;;4943687;29;20043;-75
2022/12/30 03:33:44;;;;;;;105.63;55.90;;;2.80;99.90;;;;;;4943415;28;20055;-77
2022/12/30 03:36:18;;;;;;;99.50;55.55;;;2.80;99.90;;;;;;4941718;29;20068;-77
2022/12/30 03:38:52;;;;;;;101.95;58.63;;;2.70;99.90;;;;;;4941756;29;20050;-75
2022/12/30 03:41:22;;;;;;;108.45;60.92;;;2.70;99.90;;;;;;4939664;29;20055;-73
2022/12/30 03:43:50;;;;;;;107.60;61.80;;;2.70;99.90;;;;;;4940832;28;20056;-73
2022/12/30 03:46:20;;;;;;;100.55;55.63;;;2.70;99.90;;;;;;4941988;29;20503;-75
2022/12/30 03:48:48;;;;;;;110.93;61.90;;;2.70;99.90;;;;;;4947735;29;20064;-76
2022/12/30 03:51:17;;;;;;;109.13;59.65;;;2.80;99.90;;;;;;4958716;29;20043;-75
2022/12/30 03:53:45;;;;;;;102.78;57.40;;;2.80;99.90;;;;;;4941920;28;20118;-77
2022/12/30 03:56:12;;;;;;;105.63;55.75;;;2.80;99.90;;;;;;4950594;29;20066;-75
2022/12/30 03:58:39;;;;;;;101.57;56.67;;;2.80;99.90;;;;;;4947944;29;20061;-78
2022/12/30 04:01:07;;;;;;;101.75;55.20;;;2.70;99.90;;;;;;4947936;29;20040;-75
2022/12/30 04:03:34;;;;;;;90.72;52.35;;;2.80;99.90;;;;;;4941550;29;20051;-75
2022/12/30 04:06:02;;;;;;;110.68;64.22;;;2.70;99.90;;;;;;4941398;29;20040;-78
2022/12/30 04:08:30;;;;;;;97.78;57.38;;;2.70;99.90;;;;;;4941106;29;20047;-76
2022/12/30 04:10:58;;;;;;;102.00;59.13;;;2.70;99.90;;;;;;4924579;29;20057;-78
2022/12/30 04:13:25;;;;;;;97.28;55.00;;;2.60;99.90;;;;;;4946960;28;20047;-75
2022/12/30 04:15:53;;;;;;;92.97;53.85;;;2.60;99.90;;;;;;4946250;29;20058;-76
2022/12/30 04:18:20;;;;;;;95.50;55.22;;;2.60;99.90;;;;;;4947188;29;20515;-72
2022/12/30 04:20:48;;;;;;;125.72;68.68;;;2.60;99.90;;;;;;4942801;29;20040;-77
2022/12/30 04:23:16;;;;;;;98.40;57.13;;;2.60;99.90;;;;;;4945247;29;20461;-79
2022/12/30 04:25:45;;;;;;;98.32;56.72;;;2.60;99.90;;;;;;4943108;29;20070;-76
2022/12/30 04:28:12;;;;;;;103.13;57.10;;;2.60;99.90;;;;;;4944552;29;20399;-77
2022/12/30 04:30:40;;;;;;;106.30;64.53;;;2.70;99.90;;;;;;4944675;29;20074;-75
2022/12/30 04:33:07;;;;;;;118.35;68.38;;;2.70;99.90;;;;;;4942211;29;20070;-76
2022/12/30 04:35:35;;;;;;;103.35;61.15;;;2.70;99.90;;;;;;4946027;29;20047;-73
2022/12/30 04:38:02;;;;;;;88.30;54.60;;;2.60;99.90;;;;;;4953805;29;20046;-75
2022/12/30 04:40:30;;;;;;;103.85;57.90;;;2.60;99.90;;;;;;4958937;29;20040;-78
2022/12/30 04:42:58;;;;;;;112.60;64.00;;;2.70;99.90;;;;;;4951894;29;20054;-77
2022/12/30 04:45:26;;;;;;;120.38;68.35;;;2.70;99.90;;;;;;4944314;28;20431;-77
2022/12/30 04:47:53;;;;;;;117.28;64.55;;;2.70;99.90;;;;;;4942536;29;20051;-79
2022/12/30 04:50:21;;;;;;;110.53;65.15;;;2.70;99.90;;;;;;4945284;29;20106;-76
2022/12/30 04:52:48;;;;;;;105.93;60.33;;;2.70;99.90;;;;;;4944549;29;20418;-78
2022/12/30 04:55:16;;;;;;;109.10;56.38;;;2.70;99.90;;;;;;4944855;28;20051;-77
2022/12/30 04:57:43;;;;;;;105.40;56.83;;;2.70;99.90;;;;;;4944457;29;20039;-77
2022/12/30 05:00:13;;;;;;;100.45;58.22;;;2.70;99.90;;;;;;4944206;29;20052;-77
2022/12/30 05:02:41;;;;;;;100.20;56.03;;;2.70;99.90;;;;;;4943988;29;20480;-78
2022/12/30 05:05:09;;;;;;;100.45;55.00;;;2.70;99.90;;;;;;4945253;29;20051;-76
2022/12/30 05:07:36;;;;;;;107.10;55.65;;;2.70;99.90;;;;;;4944005;29;20047;-77
2022/12/30 05:10:04;;;;;;;115.88;61.72;;;2.70;99.90;;;;;;4954256;29;20035;-74
2022/12/30 05:12:32;;;;;;;134.07;69.85;;;2.70;99.90;;;;;;4960855;29;20488;-75
2022/12/30 05:14:59;;;;;;;135.73;73.18;;;2.70;99.90;;;;;;4956710;29;20059;-76
2022/12/30 05:17:28;;;;;;;130.35;69.03;;;2.70;1.00;;;;;;4947707;29;20051;-76
2022/12/30 05:19:55;;;;;;;126.13;66.40;;;2.70;1.00;;;;;;4961077;29;20040;-75
2022/12/30 05:22:23;;;;;;;106.63;60.20;;;2.70;1.00;;;;;;4959625;29;20131;-76
2022/12/30 05:27:35;;;;;;;104.88;60.20;;;2.60;99.90;;;;;;4946361;29;20043;-74
2022/12/30 05:30:02;;;;;;;96.18;55.75;;;2.70;99.90;;;;;;4944325;29;20070;-76
2022/12/30 05:32:31;;;;;;;106.75;64.85;;;2.70;99.90;;;;;;4944088;29;20122;-79
2022/12/30 05:34:58;;;;;;;113.55;64.45;;;2.70;99.90;;;;;;4944785;28;20487;-78
2022/12/30 05:37:26;;;;;;;125.28;69.45;;;2.70;99.90;;;;;;4944565;29;20059;-75
2022/12/30 05:39:53;;;;;;;132.82;74.22;;;2.70;99.90;;;;;;4948211;29;20047;-74
2022/12/30 05:42:21;;;;;;;128.02;70.15;;;2.70;99.90;;;;;;4951690;29;20051;-73
2022/12/30 05:44:50;;;;;;;130.68;72.20;;;2.60;59.00;;;;;;4947901;29;20110;-74
2022/12/30 05:47:17;;;;;;;135.50;78.10;;;2.70;1.00;;;;;;4953469;29;20039;-76
2022/12/30 05:49:46;;;;;;;144.85;83.00;;;2.70;99.90;;;;;;4949347;29;20043;-77
2022/12/30 05:52:14;;;;;;;144.75;82.30;;;2.70;99.90;;;;;;4943637;29;20480;-75
2022/12/30 05:54:42;;;;;;;130.55;75.63;;;2.80;99.90;;;;;;4942712;28;20085;-76
2022/12/30 05:57:10;;;;;;;121.38;67.40;;;2.70;1.00;;;;;;4945807;29;20052;-75
2022/12/30 05:59:37;;;;;;;147.48;82.07;;;2.70;17.30;;;;;;4955704;29;20043;-76
2022/12/30 06:02:05;;;;;;;141.55;76.18;;;2.70;99.90;;;;;;4961639;29;20107;-78
2022/12/30 06:04:32;;;;;;;146.18;79.68;;;2.70;99.90;;;;;;4943654;29;20044;-75
2022/12/30 06:07:01;;;;;;;151.30;81.25;;;2.70;99.90;;;;;;4944724;29;20119;-79
2022/12/30 06:09:29;;;;;;;160.48;82.85;;;2.70;99.90;;;;;;4941882;29;20043;-79
2022/12/30 06:11:56;;;;;;;119.57;71.90;;;2.70;99.90;;;;;;4951668;29;20040;-79
2022/12/30 06:14:23;;;;;;;149.13;85.75;;;2.70;99.90;;;;;;4964394;29;20048;-78
2022/12/30 06:16:51;;;;;;;150.98;85.10;;;2.70;99.90;;;;;;4947366;29;20083;-76
2022/12/30 06:19:18;;;;;;;138.57;77.95;;;2.70;99.90;;;;;;4943042;29;20039;-78
2022/12/30 06:21:46;;;;;;;158.75;89.55;;;2.80;99.90;;;;;;4942848;29;20097;-76
2022/12/30 06:24:14;;;;;;;153.90;84.40;;;2.80;99.90;;;;;;4927645;29;20057;-75
2022/12/30 06:26:44;;;;;;;164.73;90.97;;;2.90;99.90;;;;;;4942933;29;20051;-77
2022/12/30 06:29:12;;;;;;;174.13;96.22;;;2.90;99.90;;;;;;4941994;29;20050;-77
2022/12/30 06:31:39;;;;;;;179.93;98.65;;;2.90;99.90;;;;;;4926535;29;20422;-78
2022/12/30 06:34:06;;;;;;;201.40;112.90;;;2.90;99.90;;;;;;4943076;29;20055;-76
2022/12/30 06:36:34;;;;;;;190.82;112.03;;;3.00;99.90;;;;;;4926683;29;20083;-74
2022/12/30 06:39:04;;;;;;;191.02;108.65;;;3.00;99.90;;;;;;4941088;29;20043;-75
2022/12/30 06:41:33;;;;;;;188.55;104.35;;;3.00;99.90;;;;;;4939819;29;20044;-78
2022/12/30 06:44:00;;;;;;;201.20;111.78;;;3.10;12.90;;;;;;4924312;29;20043;-78
2022/12/30 06:46:28;;;;;;;191.65;107.63;;;3.00;99.90;;;;;;4942746;29;20043;-78
2022/12/30 06:48:55;;;;;;;219.25;119.28;;;3.00;1.00;;;;;;4941401;29;20043;-78
2022/12/30 06:51:22;;;;;;;253.32;133.05;;;3.10;1.00;;;;;;4941930;29;20515;-77
2022/12/30 06:53:50;;;;;;;244.40;124.25;;;3.20;1.00;;;;;;4944018;29;20435;-76
2022/12/30 06:56:17;;;;;;;233.30;118.68;;;3.20;1.00;;;;;;4954528;29;20415;-78
2022/12/30 06:58:46;;;;;;;257.55;139.85;;;3.20;1.00;;;;;;4944097;29;20054;-78
2022/12/30 07:01:14;;;;;;;287.58;171.52;;;3.30;1.00;;;;;;4950511;29;20494;-76
2022/12/30 07:03:41;;;;;;;284.55;168.57;;;3.40;1.00;;;;;;4939805;28;20035;-76
2022/12/30 07:06:09;;;;;;;270.92;162.45;;;3.50;1.00;;;;;;4927425;29;20046;-77
2022/12/30 07:08:36;;;;;;;305.88;185.48;;;3.60;1.00;;;;;;4937220;29;20507;-79
2022/12/30 07:11:08;;;;;;;308.10;175.85;;;3.70;1.00;;;;;;4922920;29;20508;-76
2022/12/30 07:13:35;;;;;;;339.98;209.10;;;3.90;99.90;;;;;;4938597;29;20118;-78
2022/12/30 07:16:05;;;;;;;311.98;185.52;;;3.90;99.90;;;;;;4918607;29;20051;-78
2022/12/30 07:18:32;;;;;;;327.35;181.70;;;4.00;1.00;;;;;;4938618;29;20545;-76
2022/12/30 07:21:00;;;;;;;337.85;189.68;;;4.10;1.00;;;;;;4936883;29;20054;-77
2022/12/30 07:23:27;;;;;;;324.42;175.68;;;4.10;1.00;;;;;;4938514;28;20043;-77
2022/12/30 07:25:54;;;;;;;320.50;178.02;;;4.30;99.90;;;;;;4924908;29;20056;-77
2022/12/30 07:28:22;;;;;;;311.30;172.88;;;4.40;99.90;;;;;;4939880;29;20043;-76
2022/12/30 07:30:49;;;;;;;299.35;162.13;;;4.50;99.90;;;;;;4941227;29;20055;-77
2022/12/30 07:33:18;;;;;;;305.10;169.45;;;4.70;20.80;;;;;;4942044;29;20062;-78
2022/12/30 07:35:46;;;;;;;310.60;171.43;;;4.80;1.00;;;;;;4924584;29;20047;-76
2022/12/30 07:38:13;;;;;;;332.95;177.55;;;4.90;1.00;;;;;;4940791;29;20431;-75
2022/12/30 07:40:41;;;;;;;311.70;176.23;;;5.10;99.90;;;;;;4942225;29;20042;-76
2022/12/30 07:43:08;;;;;;;288.25;163.73;;;5.10;99.90;;;;;;4942800;28;20047;-77
2022/12/30 07:45:37;;;;;;;280.15;157.88;;;5.20;99.90;;;;;;4935507;29;20036;-78
2022/12/30 07:48:04;;;;;;;285.60;162.95;;;5.30;99.90;;;;;;4942249;29;20086;-76
2022/12/30 07:50:33;;;;;;;257.90;150.80;;;5.40;99.90;;;;;;4943998;29;20051;-74
2022/12/30 07:53:01;;;;;;;304.30;168.10;;;5.50;99.90;;;;;;4939650;29;20036;-72
2022/12/30 07:55:28;;;;;;;282.65;168.82;;;5.50;1.00;;;;;;4941008;28;20047;-74
2022/12/30 07:57:56;;;;;;;331.85;186.07;;;5.60;99.90;;;;;;4946759;29;20043;-74
2022/12/30 08:00:23;;;;;;;333.85;199.80;;;5.80;72.70;;;;;;4952949;29;20672;-79
2022/12/30 08:02:51;;;;;;;338.92;204.23;;;5.80;1.00;;;;;;4958313;29;20049;-78
2022/12/30 08:05:18;;;;;;;366.33;227.18;;;5.80;99.90;;;;;;4954476;29;20040;-79
2022/12/30 08:07:47;;;;;;;370.13;232.63;;;5.90;99.90;;;;;;4947701;29;20067;-78
2022/12/30 08:10:15;;;;;;;497.88;306.15;;;5.90;46.70;;;;;;4946157;29;20054;-77
2022/12/30 08:12:43;;;;;;;444.40;276.80;;;5.90;1.00;;;;;;4948510;28;20043;-77
2022/12/30 08:15:11;;;;;;;389.45;245.20;;;5.90;1.00;;;;;;4948889;29;20049;-76
2022/12/30 08:17:38;;;;;;;388.95;239.73;;;6.00;99.90;;;;;;4950928;29;20495;-74
2022/12/30 08:20:09;;;;;;;371.88;233.75;;;6.00;1.00;;;;;;4942948;29;20043;-78
2022/12/30 08:22:36;;;;;;;387.63;240.32;;;6.00;1.00;;;;;;4925314;29;20039;-74
2022/12/30 08:25:07;;;;;;;397.08;245.85;;;6.00;1.00;;;;;;4940686;29;20518;-77
2022/12/30 08:27:34;;;;;;;397.15;252.23;;;6.00;1.00;;;;;;4952736;29;20126;-76
2022/12/30 08:30:02;;;;;;;409.63;255.27;;;6.00;1.00;;;;;;4943316;29;20044;-78
2022/12/30 08:32:30;;;;;;;392.08;243.95;;;6.00;99.90;;;;;;4946551;29;20094;-78
2022/12/30 08:34:57;;;;;;;382.67;237.70;;;6.20;99.90;;;;;;4944334;29;20047;-77
2022/12/30 08:37:25;;;;;;;404.25;258.77;;;6.30;1.00;;;;;;4945352;29;20047;-75
2022/12/30 08:39:52;;;;;;;394.40;250.25;;;6.50;1.00;;;;;;4951874;29;20071;-75
2022/12/30 08:42:21;;;;;;;374.80;238.68;;;6.60;1.00;;;;;;4947035;28;20042;-75
2022/12/30 08:44:48;;;;;;;385.20;243.60;;;6.70;99.90;;;;;;4943097;29;20043;-76
2022/12/30 08:47:16;;;;;;;363.70;230.38;;;6.90;1.00;;;;;;4936887;29;20040;-76
2022/12/30 08:49:43;;;;;;;322.88;202.45;;;7.10;1.00;;;;;;4926305;29;20052;-74
2022/12/30 08:52:11;;;;;;;373.65;239.95;;;7.30;99.90;;;;;;4943890;29;20094;-75
2022/12/30 08:54:38;;;;;;;367.85;237.15;;;7.50;1.00;;;;;;4947040;29;20498;-77
2022/12/30 08:57:08;;;;;;;251.13;151.60;;;7.60;1.00;;;;;;4946951;29;20076;-76
2022/12/30 08:59:37;;;;;;;204.95;123.47;;;7.70;99.90;;;;;;4941452;29;20076;-75
2022/12/30 09:02:05;;;;;;;267.25;161.35;;;7.90;1.00;;;;;;4929971;29;20068;-76
2022/12/30 09:04:32;;;;;;;247.15;140.65;;;8.20;99.90;;;;;;4926952;29;20532;-77
2022/12/30 09:07:01;;;;;;;276.70;170.80;;;8.40;1.00;;;;;;4944332;28;20047;-75
2022/12/30 09:09:29;;;;;;;304.42;182.40;;;8.70;99.90;;;;;;4948339;29;20050;-76
2022/12/30 09:11:57;;;;;;;233.25;143.73;;;9.00;1.00;;;;;;4952133;28;20043;-76
2022/12/30 09:14:24;;;;;;;187.38;119.50;;;9.20;1.00;;;;;;4959483;29;20047;-77
2022/12/30 09:16:53;;;;;;;202.18;126.07;;;9.30;99.90;;;;;;4939939;29;20047;-76
2022/12/30 09:19:21;;;;;;;249.57;148.02;;;9.50;99.90;;;;;;4944700;29;20163;-75
2022/12/30 09:21:48;;;;;;;223.35;140.43;;;9.70;1.00;;;;;;4944960;28;20054;-75
2022/12/30 09:24:16;;;;;;;240.55;146.80;;;9.70;1.00;;;;;;4946593;29;20077;-75
2022/12/30 09:26:43;;;;;;;267.13;166.00;;;9.80;1.00;;;;;;4941945;29;20040;-76
2022/12/30 09:29:12;;;;;;;269.45;171.68;;;9.90;1.00;;;;;;4946703;29;20183;-78
2022/12/30 09:31:39;;;;;;;268.52;171.70;;;9.90;1.00;;;;;;4944611;28;20138;-76
2022/12/30 09:34:08;;;;;;;187.23;122.15;;;10.10;1.00;;;;;;4945481;29;20079;-74
2022/12/30 09:36:36;;;;;;;216.30;137.95;;;10.30;1.00;;;;;;4944635;29;20051;-75
2022/12/30 09:39:03;;;;;;;164.73;109.15;;;10.60;1.00;;;;;;4956489;29;20047;-76
2022/12/30 09:44:39;;;;;;;200.60;134.00;;;11.20;99.90;;;;;;4962420;29;20043;-73
2022/12/30 09:47:13;;;;;;;144.63;91.82;;;11.50;99.90;;;;;;4963145;29;20058;-75
2022/12/30 09:49:47;;;;;;;95.20;61.88;;;11.80;92.40;;;;;;4961879;29;20031;-76
2022/12/30 09:52:23;;;;;;;111.63;72.50;;;12.00;1.00;;;;;;4954252;28;20050;-74
2022/12/30 09:54:54;;;;;;;102.80;65.97;;;12.50;1.00;;;;;;4961583;29;20051;-74
2022/12/30 09:57:32;;;;;;;102.82;67.68;;;12.80;1.00;;;;;;4961269;29;20130;-74
2022/12/30 10:00:06;;;;;;;112.45;73.03;;;13.30;1.00;;;;;;4951794;29;20103;-75
2022/12/30 10:02:53;;;;;;;106.97;65.72;;;13.70;1.00;;;;;;4942414;28;20384;-74
2022/12/30 10:05:34;;;;;;;97.97;63.25;;;14.10;1.00;;;;;;4945036;29;20096;-75
2022/12/30 10:08:14;;;;;;;83.90;56.88;;;14.40;1.00;;;;;;4944460;29;20333;-74
2022/12/30 10:10:45;;;;;;;84.80;53.53;;;14.70;1.00;;;;;;4942515;29;20048;-75
2022/12/30 10:13:19;;;;;;;67.43;43.30;;;14.60;1.00;;;;;;4926539;29;20051;-74
2022/12/30 10:15:54;;;;;;;80.15;53.60;;;14.60;1.00;;;;;;4942446;29;20040;-73
2022/12/30 10:18:33;;;;;;;64.10;42.42;;;14.60;1.00;;;;;;4941302;28;20162;-74
2022/12/30 10:21:15;;;;;;;69.70;45.88;;;14.70;1.00;;;;;;4943930;28;20036;-75
2022/12/30 10:23:55;;;;;;;62.63;40.58;;;14.80;1.00;;;;;;4943865;29;20053;-75
2022/12/30 10:26:25;;;;;;;75.13;42.28;;;15.00;1.00;;;;;;4934233;29;20055;-77
2022/12/30 10:28:57;;;;;;;45.53;28.15;;;15.20;1.00;;;;;;4957800;29;20035;-76
2022/12/30 10:31:28;;;;;;;48.20;30.75;;;15.30;1.00;;;;;;4944925;29;20050;-74
2022/12/30 10:34:02;;;;;;;39.03;24.73;;;15.50;1.00;;;;;;4928016;29;20433;-75
2022/12/30 10:36:35;;;;;;;44.95;30.77;;;15.60;1.00;;;;;;4940832;29;20051;-75
2022/12/30 10:39:15;;;;;;;54.25;36.65;;;15.70;1.00;;;;;;4941223;29;20059;-74
2022/12/30 10:42:06;;;;;;;49.92;29.48;;;15.80;1.00;;;;;;4942656;28;20036;-74
2022/12/30 10:44:44;;;;;;;46.20;28.35;;;15.90;1.00;;;;;;4945090;29;20492;-74
2022/12/30 10:47:36;;;;;;;35.25;24.40;;;15.90;1.00;;;;;;4945658;29;20051;-74
2022/12/30 10:50:28;;;;;;;34.42;23.63;;;15.90;1.00;;;;;;4945328;29;20062;-75
2022/12/30 10:52:57;;;;;;;33.58;19.88;;;15.90;1.00;;;;;;4942861;29;20070;-74
2022/12/30 10:55:27;;;;;;;34.60;21.17;;;16.10;1.00;;;;;;4943183;29;20110;-73
2022/12/30 10:57:59;;;;;;;29.52;20.35;;;16.20;1.00;;;;;;4940936;29;20540;-75
2022/12/30 11:00:27;;;;;;;44.60;23.55;;;16.20;1.00;;;;;;4941681;29;20059;-74
2022/12/30 11:03:00;;;;;;;43.63;23.52;;;16.30;1.00;;;;;;4925482;29;20525;-75
2022/12/30 11:05:31;;;;;;;34.95;20.77;;;16.40;1.00;;;;;;4941041;29;20045;-74
2022/12/30 11:08:01;;;;;;;29.67;18.15;;;16.40;1.00;;;;;;4952121;29;20396;-74
2022/12/30 11:10:29;;;;;;;30.70;18.52;;;16.40;1.00;;;;;;4940803;29;20075;-75
2022/12/30 11:16:04;;;;;;;31.50;18.08;;;16.30;1.00;;;;;;4949761;29;20047;-77
2022/12/30 11:18:31;;;;;;;31.83;17.20;;;16.40;1.00;;;;;;4946583;29;20147;-75
2022/12/30 11:21:01;;;;;;;27.58;17.20;;;16.50;1.00;;;;;;4950011;28;20070;-76
2022/12/30 11:23:34;;;;;;;31.73;17.83;;;16.50;1.00;;;;;;4955999;29;20051;-75
2022/12/30 11:26:04;;;;;;;31.70;20.33;;;16.30;1.00;;;;;;4954011;29;20102;-76
2022/12/30 11:28:35;;;;;;;42.17;24.88;;;16.30;1.00;;;;;;4943526;29;20067;-78
2022/12/30 11:31:07;;;;;;;38.53;22.23;;;16.30;1.00;;;;;;4945649;28;20043;-73
2022/12/30 11:33:37;;;;;;;39.17;22.17;;;16.40;1.00;;;;;;4952409;29;20044;-74
2022/12/30 11:36:14;;;;;;;35.92;21.25;;;16.40;1.00;;;;;;4946747;29;20096;-76
2022/12/30 11:38:44;;;;;;;20.63;12.18;;;16.30;1.00;;;;;;4929672;29;20043;-73
2022/12/30 11:41:30;;;;;;;22.63;12.57;;;16.20;1.00;;;;;;4930687;29;20099;-75
2022/12/30 11:44:13;;;;;;;18.02;10.18;;;16.30;1.00;;;;;;4944045;29;20502;-74
2022/12/30 11:46:44;;;;;;;19.80;11.40;;;16.30;1.00;;;;;;4944912;29;20095;-74
2022/12/30 11:49:26;;;;;;;22.83;13.82;;;16.40;1.00;;;;;;4946060;29;20040;-74
2022/12/30 11:51:54;;;;;;;23.77;12.40;;;16.50;1.00;;;;;;4951771;29;20384;-75
2022/12/30 11:54:26;;;;;;;27.17;14.30;;;16.50;1.00;;;;;;4961558;29;20043;-74
2022/12/30 11:56:56;;;;;;;25.40;13.13;;;16.40;1.00;;;;;;4946133;29;20059;-75
2022/12/30 11:59:27;;;;;;;24.70;14.02;;;16.40;1.00;;;;;;4946656;29;20055;-75
2022/12/30 12:01:58;;;;;;;26.92;14.52;;;16.40;1.00;;;;;;4945861;29;20115;-76
2022/12/30 12:04:36;;;;;;;25.45;14.85;;;16.40;1.00;;;;;;4951472;29;20064;-74
2022/12/30 12:07:04;;;;;;;24.13;14.30;;;16.30;1.00;;;;;;4934493;29;20053;-75
2022/12/30 12:09:41;;;;;;;21.70;12.90;;;16.30;1.00;;;;;;4946607;29;20234;-74
2022/12/30 12:12:14;;;;;;;20.67;13.02;;;16.20;1.00;;;;;;4945765;29;20047;-76
2022/12/30 12:14:58;;;;;;;21.25;12.05;;;16.10;1.00;;;;;;4947232;29;20048;-75
2022/12/30 12:17:38;;;;;;;16.88;11.02;;;16.10;1.00;;;;;;4945081;29;20054;-75
2022/12/30 12:20:19;;;;;;;25.05;12.00;;;16.00;1.00;;;;;;4945036;29;20044;-76
2022/12/30 12:22:58;;;;;;;22.33;13.18;;;15.90;1.00;;;;;;4953462;29;20046;-76
2022/12/30 12:25:33;;;;;;;22.55;12.52;;;15.90;1.00;;;;;;4944715;29;20047;-76
2022/12/30 12:28:00;;;;;;;24.67;12.85;;;15.80;1.00;;;;;;4964600;29;20054;-77
2022/12/30 12:30:45;;;;;;;27.88;14.93;;;15.70;1.00;;;;;;4948765;28;20059;-76
2022/12/30 12:33:24;;;;;;;27.67;15.32;;;15.70;1.00;;;;;;4947964;29;20166;-76
2022/12/30 12:36:01;;;;;;;31.30;16.10;;;15.70;1.00;;;;;;4947580;29;20130;-75
2022/12/30 12:38:40;;;;;;;35.30;20.17;;;15.60;1.00;;;;;;4951740;29;20048;-76
2022/12/30 12:41:34;;;;;;;44.88;24.15;;;15.60;1.00;;;;;;4947465;29;20050;-75
2022/12/30 12:44:21;;;;;;;49.95;24.52;;;15.70;1.00;;;;;;4946110;29;20065;-75
2022/12/30 12:46:58;;;;;;;52.53;25.67;;;15.60;1.00;;;;;;4956065;29;20051;-76
2022/12/30 12:49:54;;;;;;;57.53;26.73;;;15.80;1.00;;;;;;4956452;29;20035;-74
2022/12/30 12:52:36;;;;;;;50.25;25.98;;;15.90;1.00;;;;;;4945659;29;20047;-75
2022/12/30 12:55:28;;;;;;;55.03;30.05;;;16.00;1.00;;;;;;4946490;29;20043;-75
2022/12/30 12:58:04;;;;;;;55.10;33.10;;;16.20;1.00;;;;;;4959985;28;20086;-75
2022/12/30 13:00:43;;;;;;;51.13;30.05;;;16.30;1.00;;;;;;4966317;29;20083;-75
2022/12/30 13:03:38;;;;;;;44.63;26.55;;;16.30;1.00;;;;;;4929747;29;20047;-76
2022/12/30 13:06:15;;;;;;;40.42;23.80;;;16.30;1.00;;;;;;4946788;29;20044;-75
2022/12/30 13:09:15;;;;;;;21.23;13.38;;;16.30;1.00;;;;;;4941486;29;20114;-74
2022/12/30 13:11:52;;;;;;;39.92;18.90;;;16.20;1.00;;;;;;4943054;29;20106;-74
2022/12/30 13:14:31;;;;;;;35.92;19.17;;;16.20;1.00;;;;;;4943280;29;20043;-74
2022/12/30 13:17:03;;;;;;;28.08;14.10;;;16.10;1.00;;;;;;4947455;29;20047;-74
2022/12/30 13:19:34;;;;;;;37.55;17.95;;;15.90;1.00;;;;;;4943569;29;20035;-76
2022/12/30 13:22:07;;;;;;;28.45;17.65;;;15.80;1.00;;;;;;4942388;29;20076;-74
2022/12/30 13:24:41;;;;;;;36.88;22.25;;;15.80;1.00;;;;;;4944542;29;20035;-74
2022/12/30 13:27:17;;;;;;;30.40;19.92;;;15.80;1.00;;;;;;4942091;29;20056;-75
2022/12/30 13:29:46;;;;;;;25.05;16.20;;;15.70;1.00;;;;;;4944317;29;20047;-73
2022/12/30 13:32:21;;;;;;;32.90;19.08;;;15.70;1.00;;;;;;4942603;28;20044;-75
2022/12/30 13:34:54;;;;;;;32.83;19.75;;;15.70;1.00;;;;;;4944077;29;20054;-75
2022/12/30 13:37:29;;;;;;;38.95;23.50;;;15.70;1.00;;;;;;4946338;29;20392;-74
2022/12/30 13:40:03;;;;;;;41.13;25.48;;;15.70;1.00;;;;;;4942162;29;20051;-74
2022/12/30 13:42:59;;;;;;;61.78;39.40;;;15.70;1.00;;;;;;4943830;29;20047;-75
2022/12/30 13:45:30;;;;;;;54.08;29.52;;;15.70;1.00;;;;;;4946778;29;20044;-75
2022/12/30 13:48:01;;;;;;;45.17;27.35;;;15.70;1.00;;;;;;4954850;29;20615;-74
2022/12/30 13:50:31;;;;;;;50.20;28.77;;;15.70;1.00;;;;;;4942526;29;20046;-73